Time;durP1;ratioP1;P1;durP2;ratioP2;P2;SDS_P1;SDS_P2;PMS_P1;PMS_P2;Temp;Humidity;BMP_temperature;BMP_pressure;BME280_temperature;BME280_humidity;BME280_pressure;Samples;Min_cycle;Max_cycle;Signal;HPM_P1;HPM_P2
2021/03/23 00:01:59;;;;;;;3.00;1.40;;;;;;;21.53;25.03;156792.91;1726146;82;21791;-74
2021/03/23 00:04:33;;;;;;;4.62;1.45;;;;;;;21.40;25.14;156758.48;1727196;82;21180;-75
2021/03/23 00:07:06;;;;;;;3.20;1.45;;;;;;;21.37;25.21;156751.89;1727829;82;21314;-74
2021/03/23 00:09:39;;;;;;;4.80;1.47;;;;;;;21.34;25.27;156743.94;1721204;81;21318;-73
2021/03/23 00:12:13;;;;;;;2.60;1.45;;;;;;;21.29;25.26;156729.38;1731308;82;21313;-75
2021/03/23 00:14:45;;;;;;;1.87;1.20;;;;;;;21.25;25.31;156718.78;1730900;81;21312;-74
2021/03/23 00:17:18;;;;;;;4.15;1.40;;;;;;;21.14;25.39;156691.03;1728831;82;21354;-75
2021/03/23 00:19:51;;;;;;;1.92;1.25;;;;;;;21.02;25.58;156659.27;1738714;82;21354;-74
2021/03/23 00:22:25;;;;;;;3.25;1.35;;;;;;;20.98;25.66;156647.37;1742401;82;21360;-74
2021/03/23 00:24:58;;;;;;;2.58;1.27;;;;;;;20.96;25.54;156643.37;1738633;81;21299;-73
2021/03/23 00:27:30;;;;;;;3.15;1.05;;;;;;;20.95;25.58;156640.72;1732714;81;21313;-74
2021/03/23 00:30:04;;;;;;;1.85;1.07;;;;;;;20.88;25.65;156620.92;1729136;81;21323;-74
2021/03/23 00:32:37;;;;;;;3.55;1.30;;;;;;;20.83;25.75;156606.38;1724179;82;21200;-74
2021/03/23 00:35:11;;;;;;;4.30;1.15;;;;;;;20.74;25.77;156583.83;1713653;82;21157;-75
2021/03/23 00:37:44;;;;;;;2.62;1.00;;;;;;;20.67;25.86;156563.98;1739378;82;21338;-74
2021/03/23 00:40:19;;;;;;;2.75;1.30;;;;;;;20.56;25.93;156536.19;1737567;82;21339;-75
2021/03/23 00:42:54;;;;;;;3.47;1.50;;;;;;;20.49;25.96;156516.34;1718781;82;21314;-75
2021/03/23 00:45:27;;;;;;;3.10;1.10;;;;;;;20.45;25.94;156505.81;1734843;80;21177;-74
2021/03/23 00:48:00;;;;;;;3.30;1.20;;;;;;;20.41;26.11;156495.22;1739232;82;21321;-75
2021/03/23 00:50:33;;;;;;;2.75;1.42;;;;;;;20.39;26.12;156489.91;1736734;82;21353;-75
2021/03/23 00:53:06;;;;;;;1.92;1.37;;;;;;;20.36;26.08;156482.03;1719858;80;21679;-74
2021/03/23 00:55:39;;;;;;;2.30;1.30;;;;;;;20.26;26.18;156455.53;1737835;82;21168;-73
2021/03/23 00:58:11;;;;;;;2.75;1.30;;;;;;;20.19;26.23;156437.05;1734819;82;21301;-75
2021/03/23 01:00:44;;;;;;;4.53;1.90;;;;;;;20.13;26.27;156422.50;1725100;82;21378;-74
2021/03/23 01:03:18;;;;;;;4.83;1.42;;;;;;;19.98;26.37;156381.53;1715618;82;21726;-74
2021/03/23 01:05:50;;;;;;;4.87;1.30;;;;;;;19.93;26.41;156368.25;1723814;82;21191;-74
2021/03/23 01:08:23;;;;;;;3.25;1.45;;;;;;;19.89;26.43;156356.36;1715844;83;21203;-75
2021/03/23 01:10:56;;;;;;;3.22;1.40;;;;;;;19.80;26.49;156333.89;1711392;83;21210;-74
2021/03/23 01:13:28;;;;;;;5.25;1.67;;;;;;;19.76;26.59;156322.00;1729380;82;21713;-74
2021/03/23 01:16:01;;;;;;;4.08;1.57;;;;;;;19.78;26.67;156327.30;1730826;82;21354;-75
2021/03/23 01:18:35;;;;;;;3.15;1.60;;;;;;;19.76;26.71;156323.34;1714783;82;21313;-75
2021/03/23 01:21:08;;;;;;;6.75;1.70;;;;;;;19.74;26.81;156318.06;1726377;82;21188;-75
2021/03/23 01:23:40;;;;;;;3.80;1.95;;;;;;;19.72;26.82;156312.75;1723283;82;21320;-73
2021/03/23 01:26:13;;;;;;;1.45;1.10;;;;;;;19.61;26.93;156283.69;1698884;83;21819;-74
2021/03/23 01:28:46;;;;;;;2.55;1.42;;;;;;;19.55;26.93;156266.50;1701018;83;21700;-73
2021/03/23 01:31:19;;;;;;;4.40;1.65;;;;;;;19.55;27.01;156267.86;1663200;84;21176;-74
2021/03/23 01:33:52;;;;;;;3.65;1.30;;;;;;;19.59;26.98;156278.39;1659562;86;21759;-74
2021/03/23 01:36:25;;;;;;;2.80;1.32;;;;;;;19.53;27.05;156261.22;1651423;85;21439;-74
2021/03/23 01:38:58;;;;;;;3.05;1.40;;;;;;;19.47;26.99;156246.69;1670356;85;21329;-74
2021/03/23 01:41:30;;;;;;;2.75;1.92;;;;;;;19.39;27.00;156225.56;1639430;85;21227;-74
2021/03/23 01:44:04;;;;;;;3.80;1.50;;;;;;;19.45;26.84;156240.09;1647749;85;21342;-73
2021/03/23 01:46:48;;;;;;;2.80;1.35;;;;;;;19.36;26.94;156217.62;1646884;85;21335;-74
2021/03/23 01:49:25;;;;;;;3.05;1.30;;;;;;;19.26;27.06;156191.22;1654450;85;21160;-74
2021/03/23 01:52:03;;;;;;;2.42;1.40;;;;;;;19.25;27.03;156188.56;1659929;85;21699;-73
2021/03/23 01:54:48;;;;;;;4.25;1.47;;;;;;;19.28;27.13;156196.50;1623887;87;21347;-74
2021/03/23 01:57:20;;;;;;;3.50;1.55;;;;;;;19.25;26.94;156188.56;1620362;87;21359;-73
2021/03/23 01:59:55;;;;;;;2.65;1.50;;;;;;;19.16;27.16;156163.45;1645289;85;21225;-74
2021/03/23 02:02:29;;;;;;;2.87;1.45;;;;;;;19.15;27.36;156162.16;1627007;87;21367;-75
2021/03/23 02:05:08;;;;;;;3.37;1.30;;;;;;;19.21;27.30;156177.98;1639592;86;21891;-75
2021/03/23 02:07:42;;;;;;;4.22;1.60;;;;;;;19.19;27.39;156171.39;1697277;83;21290;-73
2021/03/23 02:10:15;;;;;;;3.22;1.47;;;;;;;19.12;27.65;156152.92;1722395;83;21343;-74
2021/03/23 02:12:50;;;;;;;2.10;1.40;;;;;;;19.07;27.46;156140.98;1692920;83;21233;-74
2021/03/23 02:15:24;;;;;;;3.12;1.30;;;;;;;19.10;27.59;156148.88;1683626;83;21807;-73
2021/03/23 02:18:18;;;;;;;3.85;1.50;;;;;;;19.11;27.54;156151.58;1683652;83;21303;-75
2021/03/23 02:21:15;;;;;;;2.98;1.80;;;;;;;19.12;27.64;156152.92;1687639;83;21769;-74
2021/03/23 02:23:53;;;;;;;5.08;1.90;;;;;;;19.16;27.58;156164.80;1720066;82;21854;-74
2021/03/23 02:26:30;;;;;;;4.40;1.50;;;;;;;19.15;27.68;156160.86;1725340;82;21189;-74
2021/03/23 02:29:20;;;;;;;4.67;2.05;;;;;;;19.15;27.80;156162.16;1728927;82;21358;-73
2021/03/23 02:31:54;;;;;;;3.00;1.52;;;;;;;19.15;27.80;156162.16;1693621;84;21829;-74
2021/03/23 02:34:27;;;;;;;5.45;1.92;;;;;;;19.15;27.90;156160.86;1696220;83;21298;-74
2021/03/23 02:37:00;;;;;;;6.83;2.52;;;;;;;19.34;27.77;156212.33;1723719;83;21211;-74
2021/03/23 02:39:33;;;;;;;5.37;1.70;;;;;;;19.40;27.84;156228.22;1724438;83;21306;-74
2021/03/23 02:42:07;;;;;;;3.22;1.67;;;;;;;19.38;27.84;156222.91;1691082;83;21171;-73
2021/03/23 02:44:43;;;;;;;5.55;2.70;;;;;;;19.56;27.65;156269.16;1685785;84;21230;-74
2021/03/23 02:47:18;;;;;;;4.75;2.60;;;;;;;19.55;27.74;156267.86;1711599;82;21396;-74
2021/03/23 02:49:51;;;;;;;5.30;2.25;;;;;;;19.57;27.90;156271.81;1725735;83;21330;-73
2021/03/23 02:52:24;;;;;;;4.50;2.02;;;;;;;19.58;27.83;156275.75;1700948;83;21170;-74
2021/03/23 02:54:57;;;;;;;5.25;2.10;;;;;;;19.54;27.81;156263.88;1710179;83;21310;-74
2021/03/23 02:57:30;;;;;;;7.35;2.65;;;;;;;19.47;27.77;156246.69;1724797;83;21223;-74
2021/03/23 03:00:06;;;;;;;5.55;2.75;;;;;;;19.40;27.78;156228.22;1690727;83;21161;-73
2021/03/23 03:02:39;;;;;;;5.90;1.98;;;;;;;19.37;27.78;156220.27;1685682;84;21179;-73
2021/03/23 03:05:13;;;;;;;5.10;2.47;;;;;;;19.25;27.76;156187.27;1675132;85;21317;-73
2021/03/23 03:07:49;;;;;;;4.90;2.22;;;;;;;19.24;27.72;156185.92;1654593;85;21291;-74
2021/03/23 03:10:21;;;;;;;4.03;2.15;;;;;;;19.21;27.75;156177.98;1645814;85;21251;-75
2021/03/23 03:12:55;;;;;;;6.30;2.25;;;;;;;19.22;27.74;156179.33;1676515;85;21373;-73
2021/03/23 03:15:28;;;;;;;5.55;2.27;;;;;;;19.26;27.79;156189.91;1673361;85;21348;-74
2021/03/23 03:18:00;;;;;;;6.25;2.00;;;;;;;19.25;27.75;156187.27;1696264;83;21194;-74
2021/03/23 03:20:33;;;;;;;8.03;2.20;;;;;;;19.29;27.75;156197.81;1699995;84;21200;-74
2021/03/23 03:23:06;;;;;;;3.80;1.80;;;;;;;19.40;27.58;156228.22;1690622;84;21224;-74
2021/03/23 03:25:39;;;;;;;5.12;2.00;;;;;;;19.37;27.78;156218.97;1683552;84;21335;-73
2021/03/23 03:28:12;;;;;;;4.47;1.80;;;;;;;19.49;27.70;156251.98;1699342;84;21380;-74
2021/03/23 03:30:45;;;;;;;4.40;2.12;;;;;;;19.56;27.53;156270.45;1697559;84;21347;-73
2021/03/23 03:33:21;;;;;;;4.92;1.98;;;;;;;19.68;27.70;156302.16;1652374;85;21852;-74
2021/03/23 03:35:54;;;;;;;2.87;1.47;;;;;;;19.83;27.61;156340.53;1692305;84;21318;-74
2021/03/23 03:38:27;;;;;;;4.50;2.30;;;;;;;19.97;27.55;156378.89;1734954;82;21315;-73
2021/03/23 03:41:00;;;;;;;3.35;1.62;;;;;;;20.11;27.38;156415.91;1726562;82;21305;-73
2021/03/23 03:43:33;;;;;;;6.22;1.87;;;;;;;20.19;27.37;156438.39;1729021;82;21174;-73
2021/03/23 03:46:05;;;;;;;3.75;1.52;;;;;;;20.39;27.15;156491.27;1729189;82;21230;-74
2021/03/23 03:48:38;;;;;;;2.62;1.70;;;;;;;20.49;27.12;156517.70;1725922;82;21198;-74
2021/03/23 03:51:11;;;;;;;1.85;1.30;;;;;;;20.59;27.29;156542.84;1741775;81;21143;-73
2021/03/23 03:53:44;;;;;;;5.05;2.05;;;;;;;20.69;27.19;156569.28;1755040;81;21730;-74
2021/03/23 03:56:18;;;;;;;3.58;1.60;;;;;;;20.62;27.18;156550.73;1728253;83;21313;-74
2021/03/23 03:58:51;;;;;;;4.50;2.65;;;;;;;20.58;27.17;156541.50;1725936;83;21188;-73
2021/03/23 04:01:24;;;;;;;3.37;1.72;;;;;;;20.50;27.26;156519.00;1725608;82;21299;-74
2021/03/23 04:03:58;;;;;;;3.58;1.80;;;;;;;20.41;27.35;156496.56;1739719;82;21316;-74
2021/03/23 04:06:33;;;;;;;3.02;1.62;;;;;;;20.36;27.38;156483.31;1741497;82;21157;-74
2021/03/23 04:09:06;;;;;;;3.27;1.80;;;;;;;20.29;27.42;156463.48;1737461;82;21316;-73
2021/03/23 04:11:38;;;;;;;4.58;1.65;;;;;;;20.20;27.39;156441.00;1725453;82;21185;-73
2021/03/23 04:14:12;;;;;;;2.95;1.27;;;;;;;20.17;27.34;156431.75;1733168;82;21326;-73
2021/03/23 04:16:45;;;;;;;4.70;1.47;;;;;;;20.16;27.32;156429.11;1728534;83;21235;-73
2021/03/23 04:19:18;;;;;;;3.12;1.30;;;;;;;20.06;27.35;156402.67;1728628;83;21346;-72
2021/03/23 04:21:51;;;;;;;2.37;1.57;;;;;;;20.09;27.31;156410.62;1716106;83;21331;-73
2021/03/23 04:24:24;;;;;;;3.52;1.77;;;;;;;20.06;27.32;156402.67;1721574;80;21197;-73
2021/03/23 04:26:58;;;;;;;4.53;1.50;;;;;;;20.04;27.38;156397.38;1717720;81;21733;-79
2021/03/23 04:29:32;;;;;;;2.58;1.47;;;;;;;19.88;27.44;156353.72;1717355;81;22276;-73
2021/03/23 04:32:06;;;;;;;3.67;1.20;;;;;;;19.87;27.47;156352.42;1715670;81;21198;-74
2021/03/23 04:34:39;;;;;;;4.00;1.50;;;;;;;19.82;27.52;156339.19;1718448;81;21708;-76
2021/03/23 04:37:12;;;;;;;4.08;2.27;;;;;;;19.82;27.51;156339.19;1719177;81;21372;-73
2021/03/23 04:39:46;;;;;;;3.02;1.37;;;;;;;19.78;27.51;156327.30;1715074;81;21856;-73
2021/03/23 04:42:18;;;;;;;4.62;1.60;;;;;;;19.74;27.59;156318.06;1713596;81;22011;-72
2021/03/23 04:44:51;;;;;;;6.28;1.57;;;;;;;19.71;27.54;156308.81;1682037;83;21192;-76
2021/03/23 04:47:24;;;;;;;3.85;1.62;;;;;;;19.69;27.59;156304.81;1660412;84;21223;-81
2021/03/23 04:49:58;;;;;;;3.40;1.77;;;;;;;19.76;27.68;156322.00;1713886;81;21194;-82
2021/03/23 04:52:31;;;;;;;4.70;1.55;;;;;;;19.74;27.65;156316.70;1714413;81;21291;-76
2021/03/23 04:55:05;;;;;;;3.42;2.25;;;;;;;19.74;27.73;156318.06;1725230;81;21218;-81
2021/03/23 04:57:38;;;;;;;5.35;1.52;;;;;;;19.77;27.71;156326.00;1713519;81;21218;-83
2021/03/23 05:00:13;;;;;;;5.92;2.17;;;;;;;19.81;27.87;156336.53;1718835;81;21166;-80
2021/03/23 05:02:46;;;;;;;5.65;3.20;;;;;;;19.76;27.90;156322.00;1678929;83;21196;-78
2021/03/23 05:05:19;;;;;;;4.97;2.35;;;;;;;19.73;27.97;156315.41;1662273;84;21176;-80
2021/03/23 05:07:51;;;;;;;4.97;2.08;;;;;;;19.73;28.06;156315.41;1666001;83;21210;-79
2021/03/23 05:10:25;;;;;;;4.47;1.57;;;;;;;19.84;27.85;156344.47;1656819;84;21713;-78
2021/03/23 05:12:58;;;;;;;4.65;1.80;;;;;;;19.83;27.76;156341.83;1651266;84;21850;-75
2021/03/23 05:15:31;;;;;;;4.70;2.45;;;;;;;19.91;27.74;156362.95;1649897;84;21256;-78
2021/03/23 05:18:04;;;;;;;4.22;2.10;;;;;;;20.06;27.59;156402.67;1703273;81;21230;-77
2021/03/23 05:20:37;;;;;;;7.40;3.22;;;;;;;20.11;27.51;156417.22;1676335;83;21887;-77
2021/03/23 05:23:12;;;;;;;6.53;2.22;;;;;;;20.07;27.41;156406.67;1648037;86;21711;-78
2021/03/23 05:25:45;;;;;;;4.25;2.12;;;;;;;19.88;27.49;156355.06;1710911;82;21254;-79
2021/03/23 05:28:18;;;;;;;9.95;2.12;;;;;;;19.88;27.49;156353.72;1712997;81;21415;-77
2021/03/23 05:30:51;;;;;;;4.85;2.30;;;;;;;19.91;27.55;156362.95;1678309;83;21215;-77
2021/03/23 05:33:25;;;;;;;2.80;2.02;;;;;;;19.94;27.49;156370.91;1652692;84;21304;-78
2021/03/23 05:35:59;;;;;;;14.90;3.70;;;;;;;20.04;27.57;156398.72;1717531;81;21190;-71
2021/03/23 05:38:33;;;;;;;7.85;4.45;;;;;;;20.12;27.56;156418.56;1677968;83;21208;-81
2021/03/23 05:41:34;;;;;;;12.07;4.40;;;;;;;20.17;27.40;156431.75;1658526;84;21208;-78
2021/03/23 05:44:24;;;;;;;12.60;3.70;;;;;;;20.33;27.30;156474.06;1644850;86;21264;-82
2021/03/23 05:46:57;;;;;;;14.30;3.30;;;;;;;20.41;27.25;156496.56;1715484;81;21944;-84
2021/03/23 05:49:39;;;;;;;13.43;4.42;;;;;;;20.40;27.26;156492.56;1710139;81;21801;-84
2021/03/23 05:52:47;;;;;;;11.15;3.67;;;;;;;20.42;27.15;156499.22;1699343;82;21179;-76
2021/03/23 05:55:41;;;;;;;15.95;3.77;;;;;;;20.45;27.18;156507.11;1651333;81;21697;-78
2021/03/23 05:58:28;;;;;;;8.43;3.40;;;;;;;20.48;27.13;156515.05;1711511;81;22038;-78
2021/03/23 06:01:18;;;;;;;9.15;4.28;;;;;;;20.54;27.07;156529.59;1726443;82;21324;-80
2021/03/23 06:04:08;;;;;;;6.30;2.75;;;;;;;20.72;26.89;156578.53;1721629;82;21187;-78
2021/03/23 06:06:48;;;;;;;10.75;3.22;;;;;;;20.68;26.86;156567.94;1726430;83;21177;-79
2021/03/23 06:09:26;;;;;;;17.65;3.65;;;;;;;20.74;26.98;156582.48;1731979;82;21204;-78
2021/03/23 06:12:22;;;;;;;12.58;4.20;;;;;;;20.79;26.58;156597.08;1731936;82;21688;-77
2021/03/23 06:15:14;;;;;;;11.20;3.40;;;;;;;20.79;26.51;156595.78;1732031;83;21183;-76
2021/03/23 06:18:28;;;;;;;11.73;3.50;;;;;;;20.86;26.52;156615.63;1731478;83;21184;-77
2021/03/23 06:21:07;;;;;;;16.95;4.75;;;;;;;21.06;26.44;156668.53;1733468;82;21793;-77
2021/03/23 06:24:02;;;;;;;13.98;4.62;;;;;;;20.92;26.16;156631.47;1723099;83;21801;-76
2021/03/23 06:27:07;;;;;;;20.02;5.37;;;;;;;20.88;26.33;156619.58;1726711;83;21325;-77
2021/03/23 06:30:10;;;;;;;23.35;4.60;;;;;;;20.71;26.14;156574.58;1726947;83;21184;-76
2021/03/23 06:32:54;;;;;;;11.00;3.67;;;;;;;21.05;25.95;156667.22;1728286;83;21310;-77
2021/03/23 06:35:37;;;;;;;10.95;3.25;;;;;;;21.04;25.73;156664.58;1728471;83;21330;-77
2021/03/23 06:38:17;;;;;;;13.38;2.70;;;;;;;21.05;25.64;156665.88;1728298;82;21349;-78
2021/03/23 06:41:19;;;;;;;7.83;3.05;;;;;;;20.91;25.60;156627.53;1728188;83;21374;-78
2021/03/23 06:44:17;;;;;;;12.05;2.77;;;;;;;21.25;25.09;156718.78;1729225;83;21707;-77
2021/03/23 06:46:52;;;;;;;16.73;4.72;;;;;;;21.33;25.30;156741.28;1728974;81;21671;-78
2021/03/23 06:49:30;;;;;;;19.90;4.33;;;;;;;21.40;25.43;156758.48;1729908;81;21199;-78
2021/03/23 06:52:22;;;;;;;15.38;3.40;;;;;;;21.62;25.17;156816.77;1710021;84;21196;-77
2021/03/23 06:55:24;;;;;;;11.83;3.42;;;;;;;21.64;25.07;156823.42;1694540;84;21199;-77
2021/03/23 06:57:57;;;;;;;16.62;3.52;;;;;;;21.70;25.00;156839.28;1688123;84;21850;-78
2021/03/23 07:00:34;;;;;;;18.25;3.95;;;;;;;21.71;24.97;156841.94;1673979;86;21200;-78
2021/03/23 07:03:26;;;;;;;18.52;3.52;;;;;;;21.80;24.98;156864.44;1730739;82;21225;-79
2021/03/23 07:05:58;;;;;;;;;;;;;;;21.90;24.82;156892.22;1722917;83;21416;-78
2021/03/23 07:08:30;;;;;;;11.97;3.52;;;;;;;21.91;24.68;156894.86;1723718;82;20202;-79
2021/03/23 07:11:06;;;;;;;10.18;3.27;;;;;;;21.96;24.84;156909.42;1739749;82;21248;-78
2021/03/23 07:13:43;;;;;;;17.95;2.95;;;;;;;21.92;24.86;156898.86;1737978;82;21294;-78
2021/03/23 07:16:29;;;;;;;6.97;2.02;;;;;;;22.10;24.88;156946.50;1734694;82;21689;-78
2021/03/23 07:19:09;;;;;;;5.62;1.80;;;;;;;22.15;24.36;156959.77;1734927;83;21179;-78
2021/03/23 07:21:49;;;;;;;9.28;2.05;;;;;;;22.25;24.22;156986.25;1759391;81;21825;-78
2021/03/23 07:24:22;;;;;;;5.70;1.95;;;;;;;22.33;24.20;157006.16;1703149;82;21324;-78
2021/03/23 07:27:05;;;;;;;7.35;3.10;;;;;;;22.31;24.19;157002.11;1679411;83;21196;-79
2021/03/23 07:29:39;;;;;;;7.25;2.12;;;;;;;22.35;24.18;157011.42;1684200;85;21326;-78
2021/03/23 07:32:19;;;;;;;8.45;2.30;;;;;;;22.45;23.99;157037.95;1702194;84;21831;-78
2021/03/23 07:35:12;;;;;;;8.98;2.00;;;;;;;22.44;24.22;157035.30;1708011;84;21343;-78
2021/03/23 07:38:22;;;;;;;7.65;1.90;;;;;;;22.50;24.00;157051.16;1705186;84;21719;-78
2021/03/23 07:40:55;;;;;;;10.27;2.30;;;;;;;22.79;23.72;157129.31;1688671;84;21252;-78
2021/03/23 07:43:50;;;;;;;11.30;2.60;;;;;;;22.83;23.46;157139.94;1708159;84;21845;-79
2021/03/23 07:46:41;;;;;;;9.63;2.20;;;;;;;22.53;23.37;157059.13;1684313;85;21208;-78
2021/03/23 07:49:29;;;;;;;4.28;1.98;;;;;;;23.00;22.94;157186.31;1695743;83;21390;-79
2021/03/23 07:52:25;;;;;;;9.18;1.80;;;;;;;23.10;23.07;157212.84;1678296;84;21236;-77
2021/03/23 07:55:00;;;;;;;8.25;1.82;;;;;;;23.22;22.68;157244.66;1701748;84;21206;-77
2021/03/23 07:57:58;;;;;;;6.65;1.62;;;;;;;23.46;22.51;157306.92;1701707;84;21198;-77
2021/03/23 08:01:01;;;;;;;5.62;1.50;;;;;;;23.61;22.33;157346.70;1718681;82;21183;-77
2021/03/23 08:04:00;;;;;;;8.15;1.00;;;;;;;23.58;21.87;157340.09;1715597;83;21167;-77
2021/03/23 08:10:22;;;;;;;4.65;1.17;;;;;;;23.43;20.94;157299.00;1738100;81;21176;-77
2021/03/23 08:13:05;;;;;;;5.30;1.37;;;;;;;23.56;21.11;157334.78;1757196;81;21805;-76
2021/03/23 08:16:00;;;;;;;6.05;0.93;;;;;;;23.59;20.78;157342.75;1712195;82;22070;-76
2021/03/23 08:18:47;;;;;;;5.60;1.32;;;;;;;23.46;20.53;157308.28;1722531;82;21159;-77
2021/03/23 08:21:51;;;;;;;4.55;0.90;;;;;;;23.58;20.56;157340.09;1724016;81;21301;-76
2021/03/23 08:24:53;;;;;;;2.05;1.35;;;;;;;23.62;20.47;157349.36;1720463;83;21336;-76
2021/03/23 08:27:44;;;;;;;3.05;1.00;;;;;;;23.55;20.61;157332.13;1690909;83;21321;-76
2021/03/23 08:30:24;;;;;;;3.60;0.98;;;;;;;23.64;20.84;157354.67;1716869;83;21323;-76
2021/03/23 08:33:04;;;;;;;3.37;1.05;;;;;;;23.81;20.86;157402.44;1683394;85;21336;-76
2021/03/23 08:36:10;;;;;;;3.10;0.80;;;;;;;24.14;21.19;157488.64;1680560;85;21352;-76
2021/03/23 08:39:14;;;;;;;1.45;0.70;;;;;;;24.49;20.64;157582.84;1678117;85;21232;-77
2021/03/23 08:42:06;;;;;;;4.15;1.10;;;;;;;24.86;20.80;157682.39;1680289;85;21319;-76
2021/03/23 08:44:48;;;;;;;3.92;1.42;;;;;;;24.85;20.64;157679.72;1684267;84;21183;-76
2021/03/23 08:47:45;;;;;;;5.87;1.50;;;;;;;24.69;20.78;157637.25;1696774;83;21259;-76
2021/03/23 08:50:35;;;;;;;5.62;1.47;;;;;;;24.54;20.86;157594.78;1703962;84;21179;-77
2021/03/23 08:53:32;;;;;;;3.90;1.15;;;;;;;24.55;21.10;157598.78;1693527;83;21184;-78
2021/03/23 08:56:07;;;;;;;1.42;0.80;;;;;;;24.73;20.61;157646.53;1730246;83;21353;-77
2021/03/23 08:58:48;;;;;;;3.52;0.88;;;;;;;25.40;20.32;157825.77;1730305;82;21333;-78
2021/03/23 09:01:35;;;;;;;3.55;1.40;;;;;;;25.73;19.93;157914.75;1724985;83;21743;-78
2021/03/23 09:04:23;;;;;;;7.30;1.20;;;;;;;25.89;19.82;157957.25;1703908;84;21735;-75
2021/03/23 09:07:01;;;;;;;4.42;1.20;;;;;;;27.88;19.77;158487.75;1704178;84;21870;-75
2021/03/23 09:09:38;;;;;;;2.65;1.42;;;;;;;30.44;18.31;159174.89;1704040;84;21209;-75
2021/03/23 09:12:43;;;;;;;2.35;1.02;;;;;;;31.66;18.35;159501.69;1711703;83;21317;-75
2021/03/23 09:15:25;;;;;;;4.00;1.07;;;;;;;31.49;17.67;159454.95;1735125;82;21805;-76
2021/03/23 09:18:21;;;;;;;2.92;1.07;;;;;;;30.51;17.48;159193.62;1641625;86;21742;-75
2021/03/23 09:21:10;;;;;;;1.90;0.82;;;;;;;29.34;17.82;158877.78;1669861;86;21340;-75
2021/03/23 09:23:45;;;;;;;1.80;0.90;;;;;;;27.98;17.92;158515.64;1669935;86;21244;-75
2021/03/23 09:26:44;;;;;;;3.52;1.32;;;;;;;26.85;18.45;158213.70;1666205;84;21340;-78
2021/03/23 09:29:37;;;;;;;2.27;0.90;;;;;;;27.79;18.38;158463.75;1701058;84;21192;-76
2021/03/23 09:32:16;;;;;;;1.50;0.80;;;;;;;30.16;17.78;159098.94;1703562;84;21330;-76
2021/03/23 09:35:12;;;;;;;2.90;0.50;;;;;;;32.52;16.89;159732.56;1725285;82;21307;-79
2021/03/23 09:37:59;;;;;;;4.45;1.35;;;;;;;33.46;16.40;159983.66;1736621;81;21755;-75
2021/03/23 09:40:38;;;;;;;1.52;0.75;;;;;;;32.93;15.81;159842.09;1704901;83;21190;-75
2021/03/23 09:43:39;;;;;;;1.27;0.70;;;;;;;31.71;16.43;159515.05;1658297;86;21178;-76
2021/03/23 09:46:46;;;;;;;2.50;0.80;;;;;;;30.52;16.57;159196.30;1680205;83;21162;-76
2021/03/23 09:49:27;;;;;;;1.27;0.50;;;;;;;29.51;17.05;158925.75;1710231;83;21242;-76
2021/03/23 09:52:10;;;;;;;2.20;0.60;;;;;;;29.47;16.96;158915.06;1705668;83;21296;-77
2021/03/23 09:54:57;;;;;;;1.35;0.78;;;;;;;30.15;16.85;159094.97;1655701;86;21188;-76
2021/03/23 09:57:32;;;;;;;3.12;0.62;;;;;;;31.26;16.64;159392.31;1672332;83;21190;-77
2021/03/23 10:00:17;;;;;;;3.80;0.75;;;;;;;31.46;16.21;159448.30;1662928;85;21179;-76
2021/03/23 10:02:50;;;;;;;2.05;0.70;;;;;;;30.95;16.39;159310.91;1685990;83;21329;-83
2021/03/23 10:05:30;;;;;;;1.47;0.80;;;;;;;29.94;16.53;159038.97;1733570;82;21359;-82
2021/03/23 10:08:18;;;;;;;0.82;0.70;;;;;;;29.03;16.26;158796.56;1728154;82;21193;-77
2021/03/23 10:10:51;;;;;;;0.60;0.47;;;;;;;28.12;16.47;158551.59;1720413;82;21363;-77
2021/03/23 10:13:27;;;;;;;2.52;0.72;;;;;;;27.58;17.13;158409.22;1729336;82;21306;-77
2021/03/23 10:16:07;;;;;;;0.78;0.55;;;;;;;27.32;17.42;158338.70;1730151;82;21375;-76
2021/03/23 10:18:41;;;;;;;1.00;0.50;;;;;;;28.20;17.40;158572.86;1725803;83;21861;-76
2021/03/23 10:21:15;;;;;;;0.85;0.60;;;;;;;29.85;17.33;159016.31;1711589;82;21305;-77
2021/03/23 10:24:01;;;;;;;3.08;1.07;;;;;;;31.86;16.59;159553.72;1730749;82;21305;-76
2021/03/23 10:26:45;;;;;;;1.05;0.53;;;;;;;31.83;16.21;159545.75;1698838;83;21159;-76
2021/03/23 10:29:31;;;;;;;0.85;0.60;;;;;;;31.17;16.48;159369.62;1705565;84;21337;-76
2021/03/23 10:32:19;;;;;;;0.55;0.35;;;;;;;30.14;16.68;159092.30;1705510;83;21361;-76
2021/03/23 10:35:12;;;;;;;0.82;0.53;;;;;;;29.13;16.73;158823.17;1673280;84;21177;-76
2021/03/23 10:37:45;;;;;;;0.47;0.40;;;;;;;28.22;16.86;158579.50;1702627;83;21814;-76
2021/03/23 10:40:38;;;;;;;0.70;0.55;;;;;;;29.26;17.21;158857.80;1690486;85;21336;-76
2021/03/23 10:43:32;;;;;;;4.72;1.25;;;;;;;31.41;16.46;159433.63;1679185;84;21698;-76
2021/03/23 10:46:25;;;;;;;1.70;1.10;;;;;;;33.96;15.90;160117.30;1691780;83;21328;-76
2021/03/23 10:49:27;;;;;;;1.62;0.60;;;;;;;35.61;15.87;160561.31;1688434;84;21343;-81
2021/03/23 10:52:22;;;;;;;0.62;0.60;;;;;;;35.03;15.39;160406.09;1687724;82;21309;-75
2021/03/23 10:55:21;;;;;;;3.70;1.07;;;;;;;32.46;15.91;159716.56;1682550;82;21316;-76
2021/03/23 10:58:27;;;;;;;1.85;0.72;;;;;;;30.36;16.87;159152.28;1708554;84;21836;-75
2021/03/23 11:01:16;;;;;;;2.58;0.82;;;;;;;28.93;18.14;158768.58;1706932;84;21202;-74
2021/03/23 11:03:52;;;;;;;1.92;0.90;;;;;;;28.16;18.52;158563.56;1705760;83;21736;-76
2021/03/23 11:06:35;;;;;;;2.83;1.30;;;;;;;28.12;19.08;158551.59;1695693;85;21566;-78
2021/03/23 11:09:15;;;;;;;0.60;0.40;;;;;;;29.34;19.17;158880.39;1702125;84;21337;-77
2021/03/23 11:11:54;;;;;;;1.30;0.72;;;;;;;30.90;18.36;159296.25;1699801;84;21820;-76
2021/03/23 11:14:22;;;;;;;1.98;0.80;;;;;;;32.56;18.49;159743.25;1706819;83;21344;-76
2021/03/23 11:16:59;;;;;;;1.55;0.93;;;;;;;34.21;17.80;160186.84;1701082;84;21376;-77
2021/03/23 11:19:33;;;;;;;5.37;1.65;;;;;;;35.40;16.92;160505.11;1701809;84;21219;-75
2021/03/23 11:22:07;;;;;;;1.47;1.05;;;;;;;35.74;16.72;160597.42;1713715;81;21712;-76
2021/03/23 11:24:41;;;;;;;4.05;1.37;;;;;;;35.46;16.41;160521.13;1690417;83;21182;-75
2021/03/23 11:27:13;;;;;;;2.45;1.17;;;;;;;34.68;16.52;160311.16;1721670;83;21365;-75
2021/03/23 11:29:47;;;;;;;1.35;0.80;;;;;;;33.92;16.72;160106.59;1716311;83;21206;-76
2021/03/23 11:32:20;;;;;;;1.52;0.78;;;;;;;33.27;16.83;159934.25;1720713;83;21198;-75
2021/03/23 11:34:53;;;;;;;6.17;1.20;;;;;;;32.40;17.10;159700.58;1712704;84;21321;-75
2021/03/23 11:37:26;;;;;;;5.53;1.10;;;;;;;31.15;19.02;159362.97;1712734;84;21816;-76
2021/03/23 11:40:00;;;;;;;6.10;1.55;;;;;;;29.26;20.70;158857.80;1734564;80;21186;-76
2021/03/23 11:42:44;;;;;;;12.23;2.47;;;;;;;27.71;21.84;158442.50;1746327;82;21680;-76
2021/03/23 11:45:36;;;;;;;5.92;1.67;;;;;;;26.70;23.01;158172.52;1749114;80;21157;-75
2021/03/23 11:48:12;;;;;;;16.42;3.58;;;;;;;26.18;23.45;158032.95;1729429;82;21840;-74
2021/03/23 11:50:46;;;;;;;4.47;1.32;;;;;;;25.98;23.35;157979.84;1722568;83;21186;-75
2021/03/23 11:53:19;;;;;;;8.98;2.05;;;;;;;26.17;23.17;158030.30;1722613;83;21892;-76
2021/03/23 11:55:52;;;;;;;4.95;1.90;;;;;;;26.60;23.12;158147.30;1726088;81;21868;-76
2021/03/23 11:58:26;;;;;;;4.70;1.47;;;;;;;27.69;22.54;158437.17;1722594;83;21388;-76
2021/03/23 12:00:59;;;;;;;7.37;1.40;;;;;;;28.81;21.87;158738.00;1739480;81;21379;-77
2021/03/23 12:03:32;;;;;;;1.87;1.15;;;;;;;29.10;20.51;158815.17;1736785;82;21318;-76
2021/03/23 12:06:07;;;;;;;1.60;0.93;;;;;;;30.01;20.22;159057.66;1737054;82;21208;-76
2021/03/23 12:08:46;;;;;;;3.37;1.20;;;;;;;31.49;19.64;159456.31;1737145;82;21390;-73
2021/03/23 12:11:40;;;;;;;2.40;1.05;;;;;;;32.90;19.09;159832.75;1737105;82;21418;-75
2021/03/23 12:14:43;;;;;;;2.02;0.98;;;;;;;33.86;18.49;160090.59;1737122;82;21326;-74
2021/03/23 12:17:17;;;;;;;1.32;0.70;;;;;;;34.12;18.01;160160.13;1737312;82;21334;-74
2021/03/23 12:20:04;;;;;;;3.05;0.93;;;;;;;33.35;17.82;159955.66;1738543;82;21377;-75
2021/03/23 12:22:28;;;;;;;2.05;0.75;;;;;;;32.01;18.87;159595.06;1734450;82;21194;-75
2021/03/23 12:25:01;;;;;;;1.50;1.00;;;;;;;30.56;19.95;159206.92;1728132;83;21183;-74
2021/03/23 12:27:35;;;;;;;3.12;1.40;;;;;;;28.90;21.33;158760.58;1741087;82;21321;-74